createdAt,value
2023-03-31T00:02:48.734Z,12.23
2023-03-31T00:05:55.998Z,11.93
2023-03-31T00:09:01.805Z,8.95
2023-03-31T00:12:03.509Z,7.32
2023-03-31T00:15:05.441Z,11.23
2023-03-31T00:18:07.152Z,14.18
2023-03-31T00:21:14.965Z,12.60
2023-03-31T00:24:17.629Z,11.35
2023-03-31T00:27:19.507Z,12.75
2023-03-31T00:30:21.412Z,13.25
2023-03-31T00:33:23.474Z,9.20
2023-03-31T00:36:28.228Z,12.25
2023-03-31T00:39:31.988Z,14.18
2023-03-31T00:42:33.549Z,13.05
2023-03-31T00:45:36.042Z,7.85
2023-03-31T00:48:47.176Z,10.23
2023-03-31T00:51:50.949Z,9.13
2023-03-31T00:54:59.814Z,10.20
2023-03-31T00:58:03.245Z,9.52
2023-03-31T01:01:04.939Z,8.77
2023-03-31T01:04:09.703Z,6.40
2023-03-31T01:07:40.253Z,11.88
2023-03-31T01:10:46.769Z,14.38
2023-03-31T01:13:50.895Z,7.13
2023-03-31T01:16:53.519Z,9.02
2023-03-31T01:20:23.148Z,8.20
2023-03-31T01:23:54.450Z,8.70
2023-03-31T01:27:33.595Z,10.18
2023-03-31T01:31:14.653Z,9.20
2023-03-31T01:34:18.987Z,12.13
2023-03-31T01:37:50.205Z,10.90
2023-03-31T01:41:08.353Z,7.57
2023-03-31T01:44:18.750Z,13.52
2023-03-31T01:47:25.414Z,13.40
2023-03-31T01:50:41.462Z,12.77
2023-03-31T01:53:49.925Z,12.75
2023-03-31T01:57:01.910Z,8.32
2023-03-31T02:00:09.598Z,9.32
2023-03-31T02:03:14.638Z,11.32
2023-03-31T02:06:22.128Z,11.80
2023-03-31T02:09:33.556Z,11.02
2023-03-31T02:12:38.365Z,12.30
2023-03-31T02:15:44.581Z,14.30
2023-03-31T02:18:47.222Z,12.57
2023-03-31T02:21:52.163Z,15.95
2023-03-31T02:24:55.829Z,15.70
2023-03-31T02:28:02.391Z,11.02
2023-03-31T02:31:12.691Z,14.20
2023-03-31T02:34:14.718Z,13.77
2023-03-31T02:37:16.777Z,9.68
2023-03-31T02:40:22.625Z,12.25
2023-03-31T02:43:24.223Z,13.88
2023-03-31T02:46:27.491Z,15.20
2023-03-31T02:49:29.729Z,17.73
2023-03-31T02:52:46.841Z,13.32
2023-03-31T02:56:05.041Z,16.70
2023-03-31T02:59:32.245Z,18.98
2023-03-31T03:02:49.471Z,16.85
2023-03-31T03:06:04.666Z,15.70
2023-03-31T03:09:29.776Z,21.48
2023-03-31T03:12:48.567Z,16.90
2023-03-31T03:16:01.450Z,20.00
2023-03-31T03:19:05.544Z,13.02
2023-03-31T03:22:09.206Z,18.63
2023-03-31T03:25:13.846Z,19.05
2023-03-31T03:28:15.411Z,15.13
2023-03-31T03:31:17.378Z,18.15
2023-03-31T03:34:20.208Z,19.40
2023-03-31T03:37:23.087Z,17.63
2023-03-31T03:40:24.659Z,16.08
2023-03-31T03:43:26.557Z,20.83
2023-03-31T03:46:28.231Z,15.88
2023-03-31T03:49:29.911Z,16.23
2023-03-31T03:52:31.487Z,19.08
2023-03-31T03:55:33.252Z,16.42
2023-03-31T03:58:35.140Z,14.50
2023-03-31T04:01:37.159Z,18.85
2023-03-31T04:04:39.093Z,16.15
2023-03-31T04:07:40.815Z,20.17
2023-03-31T04:10:46.407Z,20.98
2023-03-31T04:13:49.055Z,15.85
2023-03-31T04:16:50.577Z,14.88
2023-03-31T04:19:52.865Z,13.20
2023-03-31T04:22:54.565Z,12.65
2023-03-31T04:25:56.171Z,14.00
2023-03-31T04:29:01.656Z,12.23
2023-03-31T04:32:03.467Z,14.82
2023-03-31T04:35:05.307Z,11.70
2023-03-31T04:38:09.066Z,13.93
2023-03-31T04:41:11.264Z,21.40
2023-03-31T04:44:12.923Z,14.93
2023-03-31T04:47:14.476Z,15.68
2023-03-31T04:50:17.227Z,13.60
2023-03-31T04:53:18.965Z,8.73
2023-03-31T04:56:20.807Z,19.45
2023-03-31T04:59:22.374Z,13.60
2023-03-31T05:02:25.510Z,12.60
2023-03-31T05:05:27.586Z,18.40
2023-03-31T05:08:29.373Z,10.90
2023-03-31T05:11:31.101Z,15.60
2023-03-31T05:14:32.681Z,11.90
2023-03-31T05:17:36.401Z,12.57
2023-03-31T05:20:38.832Z,9.05
2023-03-31T05:23:40.750Z,13.30
2023-03-31T05:26:47.663Z,18.25
2023-03-31T05:29:49.196Z,15.38
2023-03-31T05:32:50.819Z,8.35
2023-03-31T05:35:52.523Z,9.80
2023-03-31T05:38:54.252Z,12.60
2023-03-31T05:41:55.872Z,8.57
2023-03-31T05:44:57.554Z,10.73
2023-03-31T05:47:59.147Z,15.20
2023-03-31T05:51:01.625Z,10.88
2023-03-31T05:54:03.362Z,11.95
2023-03-31T05:57:04.981Z,10.35
2023-03-31T06:00:10.364Z,9.13
2023-03-31T06:03:12.094Z,7.47
2023-03-31T06:06:14.816Z,8.95
2023-03-31T06:09:17.759Z,8.27
2023-03-31T06:12:19.321Z,11.68
2023-03-31T06:15:20.908Z,7.22
2023-03-31T06:18:22.718Z,18.20
2023-03-31T06:21:24.404Z,8.57
2023-03-31T06:24:26.125Z,11.07
2023-03-31T06:27:27.665Z,7.15
2023-03-31T06:30:29.222Z,12.35
2023-03-31T06:33:31.902Z,10.88
2023-03-31T06:36:33.505Z,8.80
2023-03-31T06:39:35.159Z,8.20
2023-03-31T06:42:36.712Z,9.88
2023-03-31T06:45:38.363Z,9.57
2023-03-31T06:48:41.518Z,13.80
2023-03-31T06:51:43.208Z,11.65
2023-03-31T06:54:45.409Z,13.20
2023-03-31T06:57:47.064Z,10.63
2023-03-31T07:00:49.438Z,8.63
2023-03-31T07:03:51.162Z,11.10
2023-03-31T07:06:52.800Z,4.95
2023-03-31T07:09:56.385Z,11.60
2023-03-31T07:12:58.251Z,10.20
2023-03-31T07:15:59.949Z,9.30
2023-03-31T07:19:03.584Z,12.60
2023-03-31T07:22:06.027Z,10.15
2023-03-31T07:25:09.036Z,8.70
2023-03-31T07:28:10.998Z,5.60
2023-03-31T07:31:16.047Z,10.55
2023-03-31T07:34:17.627Z,10.55
2023-03-31T07:37:19.257Z,11.10
2023-03-31T07:40:26.314Z,12.40
2023-03-31T07:43:28.166Z,12.50
2023-03-31T07:46:30.207Z,10.32
2023-03-31T07:49:35.664Z,9.18
2023-03-31T07:52:37.349Z,12.18
2023-03-31T07:55:38.913Z,9.52
2023-03-31T07:58:40.514Z,8.90
2023-03-31T08:01:42.097Z,8.20
2023-03-31T08:04:45.274Z,8.30
2023-03-31T08:07:49.168Z,10.88
2023-03-31T08:10:50.904Z,8.77
2023-03-31T08:13:52.830Z,8.13
2023-03-31T08:16:55.437Z,5.85
2023-03-31T08:19:57.975Z,5.97
2023-03-31T08:23:01.496Z,6.47
2023-03-31T08:26:17.822Z,9.55
2023-03-31T08:29:19.872Z,11.25
2023-03-31T08:32:24.480Z,7.20
2023-03-31T08:35:26.491Z,4.40
2023-03-31T08:38:28.080Z,7.75
2023-03-31T08:41:51.268Z,7.80
2023-03-31T08:45:28.410Z,8.85
2023-03-31T08:48:37.534Z,11.57
2023-03-31T08:51:47.419Z,6.53
2023-03-31T08:54:55.187Z,6.97
2023-03-31T08:58:23.795Z,8.43
2023-03-31T09:01:47.712Z,5.22
2023-03-31T09:05:05.871Z,10.35
2023-03-31T09:11:44.744Z,8.23
2023-03-31T09:14:53.636Z,5.38
2023-03-31T09:17:59.091Z,7.30
2023-03-31T09:21:10.553Z,8.68
2023-03-31T09:24:23.653Z,13.57
2023-03-31T09:27:31.296Z,8.02
2023-03-31T09:30:36.183Z,8.57
2023-03-31T09:33:44.365Z,13.38
2023-03-31T09:36:46.290Z,8.98
2023-03-31T09:39:47.918Z,12.70
2023-03-31T09:42:59.263Z,13.18
2023-03-31T09:46:08.437Z,10.20
2023-03-31T09:49:18.138Z,8.65
2023-03-31T09:52:37.151Z,11.25
2023-03-31T09:55:50.534Z,15.70
2023-03-31T09:58:52.082Z,17.40
2023-03-31T10:01:58.883Z,13.93
2023-03-31T10:05:00.929Z,10.55
2023-03-31T10:08:14.389Z,19.90
2023-03-31T10:11:16.441Z,12.93
2023-03-31T10:14:24.008Z,15.65
2023-03-31T10:17:28.363Z,18.83
2023-03-31T10:20:38.440Z,22.50
2023-03-31T10:23:46.680Z,17.55
2023-03-31T10:26:55.376Z,11.85
2023-03-31T10:29:59.478Z,14.38
2023-03-31T10:36:22.538Z,14.25
2023-03-31T10:39:31.538Z,14.77
2023-03-31T10:42:33.493Z,16.05
2023-03-31T10:45:47.943Z,18.95
2023-03-31T10:48:51.516Z,16.88
2023-03-31T10:51:58.867Z,19.20
2023-03-31T10:55:01.701Z,21.92
2023-03-31T10:58:14.806Z,19.20
2023-03-31T11:01:22.413Z,21.20
2023-03-31T11:04:43.230Z,25.92
2023-03-31T11:11:20.357Z,19.52
2023-03-31T11:14:40.071Z,19.58
2023-03-31T11:17:56.736Z,17.55
2023-03-31T11:21:31.697Z,10.13
2023-03-31T11:24:47.384Z,14.68
2023-03-31T11:28:20.849Z,11.98
2023-03-31T11:31:40.942Z,9.07
2023-03-31T11:34:56.618Z,13.35
2023-03-31T11:37:58.175Z,11.10
2023-03-31T11:41:14.373Z,6.05
2023-03-31T11:44:18.777Z,10.43
2023-03-31T11:47:25.018Z,14.40
2023-03-31T11:50:30.625Z,8.80
2023-03-31T11:53:37.816Z,8.50
2023-03-31T11:56:41.227Z,12.43
2023-03-31T11:59:44.594Z,13.70
2023-03-31T12:03:13.317Z,14.45
2023-03-31T12:06:22.067Z,10.38
2023-03-31T12:09:52.946Z,11.18
2023-03-31T12:13:05.358Z,9.88
2023-03-31T12:16:29.709Z,10.50
2023-03-31T12:19:53.512Z,9.70
2023-03-31T12:22:57.750Z,11.25
2023-03-31T12:26:14.634Z,14.73
2023-03-31T12:29:37.577Z,10.55
2023-03-31T12:32:46.463Z,13.65
2023-03-31T12:36:04.375Z,14.63
2023-03-31T12:39:51.052Z,16.40
2023-03-31T12:43:08.201Z,12.77
2023-03-31T12:46:40.814Z,16.83
2023-03-31T12:50:14.200Z,15.38
2023-03-31T12:53:32.535Z,14.43
2023-03-31T12:57:03.660Z,17.25
2023-03-31T13:00:11.737Z,15.80
2023-03-31T13:04:09.507Z,16.92
2023-03-31T13:07:28.437Z,16.90
2023-03-31T13:10:32.181Z,20.95
2023-03-31T13:13:33.920Z,15.32
2023-03-31T13:16:36.845Z,16.23
2023-03-31T13:19:41.450Z,17.23
2023-03-31T13:22:48.284Z,17.80
2023-03-31T13:25:53.875Z,14.18
2023-03-31T13:29:15.516Z,16.48
2023-03-31T13:32:24.061Z,19.13
2023-03-31T13:35:30.821Z,16.65
2023-03-31T13:38:43.128Z,15.25
2023-03-31T13:42:01.617Z,10.23
2023-03-31T13:45:19.153Z,12.85
2023-03-31T13:48:52.937Z,9.15
2023-03-31T13:51:59.394Z,15.13
2023-03-31T13:55:19.716Z,13.38
2023-03-31T13:58:46.678Z,13.57
2023-03-31T14:02:06.163Z,13.52
2023-03-31T14:05:29.790Z,10.07
2023-03-31T14:08:52.425Z,10.05
2023-03-31T14:11:54.560Z,7.00
2023-03-31T14:14:56.140Z,11.50
2023-03-31T14:17:58.415Z,10.85
2023-03-31T14:21:06.364Z,10.02
2023-03-31T14:24:30.768Z,10.35
2023-03-31T14:28:00.872Z,12.15
2023-03-31T14:31:20.806Z,6.65
2023-03-31T14:34:26.122Z,9.48
2023-03-31T14:37:28.137Z,8.40
2023-03-31T14:40:30.229Z,9.93
2023-03-31T14:43:34.966Z,6.10
2023-03-31T14:46:39.443Z,6.95
2023-03-31T14:49:41.196Z,11.60
2023-03-31T14:52:52.586Z,8.60
2023-03-31T14:56:06.518Z,9.98
2023-03-31T14:59:08.966Z,10.32
2023-03-31T15:02:17.599Z,12.02
2023-03-31T15:05:28.662Z,15.18
2023-03-31T15:08:32.764Z,11.02
2023-03-31T15:11:34.941Z,23.75
2023-03-31T15:14:43.446Z,14.43
2023-03-31T15:17:47.222Z,18.33
2023-03-31T15:20:48.852Z,12.70
2023-03-31T15:23:56.086Z,19.75
2023-03-31T15:27:01.185Z,16.33
2023-03-31T15:30:24.723Z,13.35
2023-03-31T15:33:36.438Z,11.25
2023-03-31T15:36:41.155Z,12.65
2023-03-31T15:39:47.090Z,13.45
2023-03-31T15:43:01.732Z,16.92
2023-03-31T15:46:24.301Z,14.95
2023-03-31T15:49:27.084Z,12.10
2023-03-31T15:52:34.145Z,10.70
2023-03-31T15:58:57.920Z,11.32
2023-03-31T16:02:01.107Z,8.00
2023-03-31T16:05:08.012Z,5.28
2023-03-31T16:08:17.353Z,9.35
2023-03-31T16:11:24.617Z,9.77
2023-03-31T16:14:33.033Z,12.35
2023-03-31T16:17:49.420Z,10.55
2023-03-31T16:20:55.897Z,10.30
2023-03-31T16:23:59.353Z,5.78
2023-03-31T16:27:06.154Z,5.93
2023-03-31T16:30:17.901Z,7.60
2023-03-31T16:33:23.249Z,6.13
2023-03-31T16:36:24.972Z,5.95
2023-03-31T16:39:26.545Z,5.97
2023-03-31T16:42:28.489Z,4.82
2023-03-31T16:45:30.012Z,5.63
2023-03-31T16:48:33.806Z,5.82
2023-03-31T16:51:35.560Z,4.80
2023-03-31T16:54:37.249Z,4.78
2023-03-31T16:57:38.776Z,9.70
2023-03-31T17:00:41.779Z,7.90
2023-03-31T17:03:43.527Z,5.40
2023-03-31T17:06:45.230Z,7.68
2023-03-31T17:09:46.992Z,8.50
2023-03-31T17:12:48.629Z,13.02
2023-03-31T17:15:52.183Z,7.72
2023-03-31T17:18:57.774Z,9.43
2023-03-31T17:22:01.900Z,9.30
2023-03-31T17:25:04.928Z,7.28
2023-03-31T17:28:06.527Z,9.77
2023-03-31T17:31:12.084Z,11.88
2023-03-31T17:34:13.639Z,10.00
2023-03-31T17:37:22.094Z,10.52
2023-03-31T17:40:26.877Z,6.28
2023-03-31T17:43:29.570Z,7.22
2023-03-31T17:46:31.618Z,6.25
2023-03-31T17:49:33.310Z,7.35
2023-03-31T17:52:35.739Z,7.15
2023-03-31T17:55:38.412Z,6.07
2023-03-31T17:58:40.204Z,6.50
2023-03-31T18:01:42.039Z,10.25
2023-03-31T18:04:44.110Z,6.10
2023-03-31T18:07:45.722Z,8.23
2023-03-31T18:10:47.364Z,7.93
2023-03-31T18:13:49.287Z,6.03
2023-03-31T18:16:51.058Z,8.60
2023-03-31T18:19:52.620Z,9.85
2023-03-31T18:22:54.217Z,6.95
2023-03-31T18:25:55.919Z,6.63
2023-03-31T18:28:58.874Z,8.70
2023-03-31T18:32:00.715Z,8.25
2023-03-31T18:35:02.547Z,8.88
2023-03-31T18:38:04.537Z,8.88
2023-03-31T18:41:06.109Z,8.32
2023-03-31T18:45:06.759Z,10.20
2023-03-31T18:48:19.436Z,4.75
2023-03-31T18:51:51.878Z,7.80
2023-03-31T18:55:08.648Z,7.13
2023-03-31T18:58:28.552Z,6.93
2023-03-31T19:01:41.660Z,8.67
2023-03-31T19:04:57.509Z,10.70
2023-03-31T19:08:09.821Z,10.60
2023-03-31T19:11:16.798Z,8.95
2023-03-31T19:14:18.776Z,6.60
2023-03-31T19:17:20.377Z,7.40
2023-03-31T19:20:22.091Z,6.57
2023-03-31T19:23:23.689Z,4.78
2023-03-31T19:26:28.304Z,8.38
2023-03-31T19:29:31.724Z,5.15
2023-03-31T19:32:33.299Z,5.28
2023-03-31T19:35:35.434Z,6.30
2023-03-31T19:38:37.052Z,7.72
2023-03-31T19:41:39.109Z,9.30
2023-03-31T19:44:43.062Z,10.07
2023-03-31T19:47:44.668Z,5.38
2023-03-31T19:50:57.246Z,5.82
2023-03-31T19:53:58.817Z,8.98
2023-03-31T19:57:00.467Z,7.97
2023-03-31T20:00:04.072Z,7.85
2023-03-31T20:03:07.767Z,8.50
2023-03-31T20:06:12.587Z,9.95
2023-03-31T20:09:14.194Z,6.28
2023-03-31T20:12:15.785Z,8.52
2023-03-31T20:15:17.854Z,11.02
2023-03-31T20:18:19.587Z,10.73
2023-03-31T20:21:23.976Z,10.50
2023-03-31T20:24:27.303Z,10.40
2023-03-31T20:27:28.927Z,8.48
2023-03-31T20:30:30.941Z,13.43
2023-03-31T20:33:32.700Z,11.13
2023-03-31T20:36:34.505Z,7.43
2023-03-31T20:39:36.150Z,11.18
2023-03-31T20:42:37.789Z,11.30
2023-03-31T20:45:39.374Z,10.05
2023-03-31T20:48:43.059Z,9.98
2023-03-31T20:51:45.600Z,11.63
2023-03-31T20:54:47.226Z,11.02
2023-03-31T20:57:49.349Z,9.73
2023-03-31T21:00:56.889Z,7.18
2023-03-31T21:04:01.075Z,9.30
2023-03-31T21:07:02.933Z,11.55
2023-03-31T21:10:05.385Z,11.73
2023-03-31T21:13:07.117Z,7.32
2023-03-31T21:16:09.101Z,12.95
2023-03-31T21:19:11.531Z,8.60
2023-03-31T21:22:13.086Z,10.82
2023-03-31T21:25:14.978Z,7.07
2023-03-31T21:28:19.803Z,9.30
2023-03-31T21:31:27.139Z,6.95
2023-03-31T21:34:28.796Z,8.02
2023-03-31T21:37:30.710Z,7.95
2023-03-31T21:40:32.270Z,10.75
2023-03-31T21:43:34.075Z,11.55
2023-03-31T21:46:36.188Z,12.70
2023-03-31T21:49:38.004Z,12.45
2023-03-31T21:52:39.570Z,11.80
2023-03-31T21:55:41.377Z,9.57
2023-03-31T21:58:43.042Z,11.52
2023-03-31T22:01:44.683Z,11.65
2023-03-31T22:04:46.769Z,13.38
2023-03-31T22:07:48.507Z,11.23
2023-03-31T22:10:54.670Z,15.07
2023-03-31T22:13:57.486Z,13.00
2023-03-31T22:16:59.066Z,9.73
2023-03-31T22:20:00.627Z,9.10
2023-03-31T22:23:02.199Z,12.60
2023-03-31T22:26:03.866Z,12.00
2023-03-31T22:29:05.490Z,12.32
2023-03-31T22:32:07.179Z,14.20
2023-03-31T22:35:09.189Z,9.68
2023-03-31T22:38:13.402Z,10.10
2023-03-31T22:41:15.578Z,8.88
2023-03-31T22:44:17.503Z,8.93
2023-03-31T22:47:19.336Z,11.45
2023-03-31T22:50:21.012Z,8.73
2023-03-31T22:53:23.117Z,7.75
2023-03-31T22:56:24.922Z,10.63
2023-03-31T22:59:26.487Z,8.52
2023-03-31T23:02:28.090Z,8.15
2023-03-31T23:05:30.172Z,7.57
2023-03-31T23:08:33.224Z,8.90
2023-03-31T23:11:34.791Z,13.18
2023-03-31T23:14:36.456Z,11.48
2023-03-31T23:17:38.102Z,4.25
2023-03-31T23:20:39.851Z,6.47
2023-03-31T23:23:42.169Z,10.30
2023-03-31T23:26:43.748Z,10.82
2023-03-31T23:29:46.072Z,9.40
2023-03-31T23:32:47.590Z,10.48
2023-03-31T23:35:49.584Z,6.75
2023-03-31T23:38:53.477Z,7.03
2023-03-31T23:41:55.084Z,9.88
2023-03-31T23:44:56.661Z,6.50
2023-03-31T23:47:58.632Z,7.68
2023-03-31T23:51:00.839Z,9.02
2023-03-31T23:54:02.412Z,7.95
2023-03-31T23:57:04.193Z,9.00
